createdAt,value
2018-09-05T00:00:24.805Z,44.36
2018-09-05T00:02:55.690Z,43.24
2018-09-05T00:05:26.316Z,43.76
2018-09-05T00:07:57.053Z,43.08
2018-09-05T00:10:27.685Z,42.95
2018-09-05T00:12:58.468Z,41.05
2018-09-05T00:15:29.056Z,41.67
2018-09-05T00:17:59.719Z,41.47
2018-09-05T00:20:30.404Z,40.45
2018-09-05T00:23:02.342Z,38.58
2018-09-05T00:25:32.816Z,39.51
2018-09-05T00:28:04.709Z,40.35
2018-09-05T00:30:35.310Z,40.76
2018-09-05T00:33:06.322Z,41.00
2018-09-05T00:35:37.002Z,40.05
2018-09-05T00:38:07.793Z,40.38
2018-09-05T00:40:38.429Z,40.19
2018-09-05T00:43:09.317Z,41.42
2018-09-05T00:45:39.942Z,42.88
2018-09-05T00:48:10.758Z,42.72
2018-09-05T00:50:41.413Z,42.18
2018-09-05T00:53:12.163Z,41.55
2018-09-05T00:55:43.048Z,40.58
2018-09-05T00:58:13.796Z,40.23
2018-09-05T01:00:44.597Z,41.42
2018-09-05T01:03:15.509Z,43.61
2018-09-05T01:05:46.045Z,43.39
2018-09-05T01:08:16.767Z,44.54
2018-09-05T01:10:47.473Z,44.21
2018-09-05T01:13:18.327Z,44.08
2018-09-05T01:15:49.041Z,43.34
2018-09-05T01:18:19.888Z,44.23
2018-09-05T01:20:50.597Z,45.12
2018-09-05T01:23:21.385Z,44.38
2018-09-05T01:25:52.033Z,45.87
2018-09-05T01:28:22.789Z,45.42
2018-09-05T01:30:53.453Z,46.13
2018-09-05T01:33:24.537Z,47.07
2018-09-05T01:36:27.529Z,46.61
2018-09-05T01:38:58.149Z,46.10
2018-09-05T01:41:28.769Z,45.53
2018-09-05T01:43:59.484Z,46.08
2018-09-05T01:46:30.102Z,45.42
2018-09-05T01:49:00.853Z,42.65
2018-09-05T01:51:33.589Z,42.48
2018-09-05T01:54:04.672Z,40.86
2018-09-05T01:56:35.329Z,42.03
2018-09-05T01:59:06.177Z,43.06
2018-09-05T02:01:36.846Z,42.48
2018-09-05T02:04:07.821Z,44.68
2018-09-05T02:06:38.526Z,43.62
2018-09-05T02:09:12.549Z,43.62
2018-09-05T02:11:43.179Z,43.73
2018-09-05T02:14:14.182Z,44.16
2018-09-05T02:16:44.769Z,45.49
2018-09-05T02:19:15.525Z,43.90
2018-09-05T02:21:46.094Z,43.52
2018-09-05T02:24:16.934Z,42.97
2018-09-05T02:26:47.494Z,40.76
2018-09-05T02:29:18.193Z,42.09
2018-09-05T02:31:48.839Z,41.60
2018-09-05T02:34:19.501Z,42.81
2018-09-05T02:36:50.058Z,42.28
2018-09-05T02:39:20.944Z,42.50
2018-09-05T02:41:51.712Z,40.45
2018-09-05T02:44:23.720Z,41.06
2018-09-05T02:46:54.228Z,41.55
2018-09-05T02:49:32.200Z,42.75
2018-09-05T02:52:02.921Z,41.99
2018-09-05T02:55:03.502Z,41.82
2018-09-05T02:57:34.102Z,41.37
2018-09-05T03:00:04.929Z,40.85
2018-09-05T03:02:35.571Z,41.65
2018-09-05T03:05:06.309Z,41.52
2018-09-05T03:07:36.728Z,41.13
2018-09-05T03:10:07.336Z,40.40
2018-09-05T03:12:37.977Z,40.68
2018-09-05T03:15:09.009Z,41.74
2018-09-05T03:17:39.584Z,42.09
2018-09-05T03:20:10.326Z,40.33
2018-09-05T03:22:40.822Z,43.04
2018-09-05T03:25:11.677Z,41.78
2018-09-05T03:27:42.351Z,41.22
2018-09-05T03:30:13.374Z,41.42
2018-09-05T03:32:44.424Z,39.95
2018-09-05T03:35:15.320Z,42.18
2018-09-05T03:37:46.387Z,40.05
2018-09-05T03:40:17.406Z,40.65
2018-09-05T03:42:48.317Z,43.54
2018-09-05T03:45:19.195Z,43.47
2018-09-05T03:47:49.914Z,43.54
2018-09-05T03:50:21.845Z,43.64
2018-09-05T03:52:52.699Z,43.36
2018-09-05T03:55:23.801Z,41.87
2018-09-05T03:57:54.293Z,42.57
2018-09-05T04:00:25.040Z,40.99
2018-09-05T04:02:55.703Z,40.99
2018-09-05T04:05:26.633Z,40.30
2018-09-05T04:07:57.130Z,41.45
2018-09-05T04:10:27.981Z,40.72
2018-09-05T04:12:58.732Z,40.64
2018-09-05T04:15:29.531Z,42.57
2018-09-05T04:18:00.417Z,41.46
2018-09-05T04:20:30.737Z,42.10
2018-09-05T04:23:00.989Z,40.67
2018-09-05T04:25:31.829Z,40.81
2018-09-05T04:28:02.525Z,39.46
2018-09-05T04:30:33.284Z,41.61
2018-09-05T04:33:03.988Z,40.87
2018-09-05T04:35:36.247Z,40.29
2018-09-05T04:38:06.828Z,38.83
2018-09-05T04:40:37.545Z,38.64
2018-09-05T04:43:08.154Z,38.87
2018-09-05T04:45:39.021Z,37.75
2018-09-05T04:48:09.690Z,39.47
2018-09-05T04:50:40.577Z,39.60
2018-09-05T04:53:12.102Z,40.24
2018-09-05T04:55:50.473Z,41.06
2018-09-05T04:58:26.089Z,40.49
2018-09-05T05:00:56.910Z,41.00
2018-09-05T05:03:27.581Z,39.67
2018-09-05T05:05:58.554Z,41.69
2018-09-05T05:08:29.300Z,42.08
2018-09-05T05:11:00.077Z,43.56
2018-09-05T05:13:30.770Z,44.20
2018-09-05T05:16:01.943Z,41.81
2018-09-05T05:18:32.746Z,41.91
2018-09-05T05:21:03.712Z,42.92
2018-09-05T05:23:35.768Z,41.44
2018-09-05T05:26:06.529Z,41.16
2018-09-05T05:28:36.940Z,41.13
2018-09-05T05:31:07.633Z,40.22
2018-09-05T05:33:38.350Z,40.75
2018-09-05T05:36:08.972Z,40.55
2018-09-05T05:38:42.029Z,40.78
2018-09-05T05:41:12.725Z,41.59
2018-09-05T05:43:43.461Z,40.10
2018-09-05T05:46:14.424Z,40.39
2018-09-05T05:48:45.021Z,38.41
2018-09-05T05:51:15.793Z,38.50
2018-09-05T05:53:46.307Z,40.13
2018-09-05T05:56:17.471Z,42.17
2018-09-05T05:58:48.047Z,38.60
2018-09-05T06:01:18.902Z,34.30
2018-09-05T06:03:49.573Z,36.44
2018-09-05T06:06:20.455Z,35.62
2018-09-05T06:08:50.968Z,36.43
2018-09-05T06:11:21.602Z,35.75
2018-09-05T06:13:52.515Z,33.91
2018-09-05T06:16:23.480Z,34.26
2018-09-05T06:18:54.105Z,34.90
2018-09-05T06:21:25.552Z,35.67
2018-09-05T06:23:56.349Z,38.16
2018-09-05T06:26:27.030Z,38.39
2018-09-05T06:28:57.716Z,35.60
2018-09-05T06:31:28.653Z,34.73
2018-09-05T06:33:59.241Z,34.72
2018-09-05T06:36:30.030Z,34.94
2018-09-05T06:39:00.841Z,35.25
2018-09-05T06:41:31.457Z,33.27
2018-09-05T06:44:02.051Z,32.44
2018-09-05T06:46:32.812Z,34.25
2018-09-05T06:49:03.464Z,32.37
2018-09-05T06:51:34.057Z,35.89
2018-09-05T06:54:04.646Z,35.63
2018-09-05T06:56:35.333Z,36.75
2018-09-05T06:59:05.960Z,34.95
2018-09-05T07:01:36.926Z,32.13
2018-09-05T07:04:07.477Z,30.94
2018-09-05T07:06:38.376Z,29.96
2018-09-05T07:09:12.185Z,29.46
2018-09-05T07:11:43.068Z,33.45
2018-09-05T07:14:13.701Z,32.92
2018-09-05T07:16:45.308Z,33.19
2018-09-05T07:19:16.372Z,34.36
2018-09-05T07:21:47.444Z,36.72
2018-09-05T07:24:18.277Z,36.73
2018-09-05T07:26:49.001Z,34.97
2018-09-05T07:29:19.639Z,35.83
2018-09-05T07:31:50.341Z,37.84
2018-09-05T07:34:20.882Z,38.38
2018-09-05T07:36:51.665Z,36.86
2018-09-05T07:39:22.121Z,38.49
2018-09-05T07:41:52.961Z,39.34
2018-09-05T07:44:23.568Z,38.20
2018-09-05T07:46:54.466Z,36.34
2018-09-05T07:49:25.093Z,35.48
2018-09-05T07:51:55.804Z,32.93
2018-09-05T07:54:26.518Z,33.97
2018-09-05T07:56:57.413Z,31.24
2018-09-05T07:59:28.099Z,32.70
2018-09-05T08:01:58.913Z,32.97
2018-09-05T08:04:29.517Z,32.51
2018-09-05T08:07:00.083Z,32.59
2018-09-05T08:09:30.757Z,31.72
2018-09-05T08:12:01.443Z,29.70
2018-09-05T08:14:32.061Z,28.84
2018-09-05T08:17:02.808Z,27.17
2018-09-05T08:19:33.281Z,29.45
2018-09-05T08:22:04.001Z,30.52
2018-09-05T08:24:34.717Z,29.16
2018-09-05T08:27:05.713Z,29.12
2018-09-05T08:29:36.302Z,28.59
2018-09-05T08:32:07.285Z,26.10
2018-09-05T08:34:37.740Z,30.40
2018-09-05T08:37:08.820Z,30.20
2018-09-05T08:39:39.403Z,27.65
2018-09-05T08:42:10.308Z,26.79
2018-09-05T08:44:41.216Z,29.09
2018-09-05T08:47:12.899Z,29.11
2018-09-05T08:49:43.536Z,27.34
2018-09-05T08:52:15.861Z,27.34
2018-09-05T08:54:46.445Z,28.94
2018-09-05T08:57:17.285Z,28.07
2018-09-05T08:59:47.885Z,28.47
2018-09-05T09:02:18.714Z,25.83
2018-09-05T09:04:49.321Z,27.85
2018-09-05T09:07:20.193Z,26.90
2018-09-05T09:09:50.722Z,25.98
2018-09-05T09:12:21.817Z,24.60
2018-09-05T09:14:52.320Z,26.75
2018-09-05T09:17:23.105Z,27.09
2018-09-05T09:19:53.696Z,25.64
2018-09-05T09:22:24.202Z,26.31
2018-09-05T09:24:54.797Z,27.37
2018-09-05T09:27:25.885Z,28.02
2018-09-05T09:29:56.389Z,25.82
2018-09-05T09:32:27.153Z,26.03
2018-09-05T09:34:57.669Z,25.20
2018-09-05T09:37:28.609Z,24.37
2018-09-05T09:39:59.204Z,27.01
2018-09-05T09:42:29.729Z,27.42
2018-09-05T09:45:00.413Z,27.21
2018-09-05T09:47:31.184Z,24.23
2018-09-05T09:50:01.890Z,25.32
2018-09-05T09:53:15.057Z,27.63
2018-09-05T09:55:45.616Z,25.55
2018-09-05T09:58:16.675Z,25.86
2018-09-05T10:00:52.037Z,26.70
2018-09-05T10:03:27.706Z,27.02
2018-09-05T10:06:03.534Z,26.01
2018-09-05T10:08:38.173Z,26.19
2018-09-05T10:11:13.869Z,26.87
2018-09-05T10:13:49.613Z,29.60
2018-09-05T10:16:25.220Z,24.61
2018-09-05T10:18:56.302Z,25.61
2018-09-05T10:21:26.992Z,24.66
2018-09-05T10:23:58.013Z,26.47
2018-09-05T10:26:28.727Z,27.22
2018-09-05T10:28:59.585Z,27.05
2018-09-05T10:31:30.032Z,25.21
2018-09-05T10:34:00.769Z,27.62
2018-09-05T10:36:31.361Z,28.56
2018-09-05T10:39:02.084Z,25.12
2018-09-05T10:41:32.789Z,24.67
2018-09-05T10:44:04.600Z,24.81
2018-09-05T10:46:35.445Z,24.86
2018-09-05T10:49:06.332Z,22.16
2018-09-05T10:51:41.729Z,26.11
2018-09-05T10:54:12.336Z,24.96
2018-09-05T10:56:42.809Z,25.37
2018-09-05T10:59:13.705Z,29.04
2018-09-05T11:01:44.290Z,28.08
2018-09-05T11:04:14.901Z,27.27
2018-09-05T11:06:45.514Z,27.46
2018-09-05T11:09:16.292Z,27.72
2018-09-05T11:11:47.038Z,25.20
2018-09-05T11:14:17.861Z,25.92
2018-09-05T11:16:48.611Z,27.16
2018-09-05T11:19:19.910Z,32.08
2018-09-05T11:21:50.562Z,54.03
2018-09-05T11:28:36.834Z,54.03
2018-09-05T11:31:07.955Z,47.35
2018-09-05T11:33:38.788Z,54.45
2018-09-05T11:36:09.582Z,48.52
2018-09-05T11:38:40.721Z,48.70
2018-09-05T11:41:11.303Z,47.55
2018-09-05T11:43:41.966Z,46.17
2018-09-05T11:46:12.502Z,45.75
2018-09-05T11:48:43.228Z,46.37
2018-09-05T11:51:13.757Z,44.83
2018-09-05T11:53:44.604Z,44.01
2018-09-05T11:56:15.385Z,43.59
2018-09-05T11:58:46.153Z,44.28
2018-09-05T12:01:16.865Z,42.21
2018-09-05T12:03:47.557Z,43.65
2018-09-05T12:06:18.173Z,45.79
2018-09-05T12:08:49.131Z,46.14
2018-09-05T12:11:19.793Z,43.50
2018-09-05T12:13:50.549Z,42.90
2018-09-05T12:16:21.116Z,44.72
2018-09-05T12:18:52.205Z,42.58
2018-09-05T12:21:22.777Z,43.57
2018-09-05T12:23:53.633Z,41.52
2018-09-05T12:26:24.069Z,41.42
2018-09-05T12:28:54.900Z,35.01
2018-09-05T12:31:25.381Z,35.70
2018-09-05T12:33:58.469Z,34.46
2018-09-05T12:36:29.704Z,36.67
2018-09-05T12:39:01.091Z,37.49
2018-09-05T12:41:31.816Z,38.41
2018-09-05T12:44:02.697Z,37.47
2018-09-05T12:46:33.393Z,36.48
2018-09-05T12:49:04.213Z,35.25
2018-09-05T12:51:34.953Z,33.97
2018-09-05T12:54:06.392Z,31.55
2018-09-05T12:56:37.089Z,34.05
2018-09-05T12:59:07.960Z,35.02
2018-09-05T13:01:38.549Z,36.13
2018-09-05T13:04:09.477Z,34.16
2018-09-05T13:06:40.100Z,33.96
2018-09-05T13:09:13.593Z,38.06
2018-09-05T13:11:44.424Z,35.12
2018-09-05T13:14:15.005Z,36.17
2018-09-05T13:16:45.677Z,36.25
2018-09-05T13:19:16.390Z,37.00
2018-09-05T13:21:47.026Z,35.74
2018-09-05T13:24:17.644Z,36.43
2018-09-05T13:26:48.223Z,35.86
2018-09-05T13:29:18.842Z,34.01
2018-09-05T13:31:49.586Z,34.99
2018-09-05T13:34:20.365Z,35.73
2018-09-05T13:36:51.013Z,41.57
2018-09-05T13:39:21.921Z,40.24
2018-09-05T13:41:52.530Z,37.70
2018-09-05T13:44:23.244Z,36.84
2018-09-05T13:46:53.675Z,37.24
2018-09-05T13:49:24.516Z,38.79
2018-09-05T13:52:00.174Z,36.09
2018-09-05T13:54:30.857Z,34.98
2018-09-05T13:57:01.488Z,34.19
2018-09-05T13:59:32.707Z,35.58
2018-09-05T14:02:03.325Z,34.33
2018-09-05T14:04:34.368Z,32.78
2018-09-05T14:07:04.986Z,31.59
2018-09-05T14:09:35.932Z,30.19
2018-09-05T14:12:06.766Z,31.37
2018-09-05T14:14:37.549Z,31.35
2018-09-05T14:17:08.182Z,32.05
2018-09-05T14:19:38.860Z,31.25
2018-09-05T14:22:09.468Z,32.65
2018-09-05T14:24:40.253Z,31.57
2018-09-05T14:27:10.857Z,32.29
2018-09-05T14:29:41.392Z,32.12
2018-09-05T14:32:11.946Z,32.13
2018-09-05T14:34:42.545Z,31.00
2018-09-05T14:37:13.029Z,31.95
2018-09-05T14:39:44.146Z,29.60
2018-09-05T14:42:14.684Z,30.68
2018-09-05T14:44:45.413Z,31.50
2018-09-05T14:47:15.857Z,31.93
2018-09-05T14:49:46.820Z,31.28
2018-09-05T14:52:17.368Z,29.73
2018-09-05T14:54:48.053Z,32.45
2018-09-05T14:57:18.574Z,32.82
2018-09-05T14:59:50.311Z,31.94
2018-09-05T15:02:21.594Z,33.63
2018-09-05T15:04:52.429Z,31.68
2018-09-05T15:07:23.021Z,31.74
2018-09-05T15:09:53.830Z,32.54
2018-09-05T15:12:24.279Z,31.93
2018-09-05T15:14:54.997Z,33.11
2018-09-05T15:17:25.621Z,32.21
2018-09-05T15:19:56.661Z,33.62
2018-09-05T15:22:27.093Z,34.58
2018-09-05T15:24:57.869Z,35.18
2018-09-05T15:27:28.353Z,35.73
2018-09-05T15:29:59.315Z,35.69
2018-09-05T15:32:29.792Z,34.71
2018-09-05T15:35:00.477Z,34.32
2018-09-05T15:37:30.952Z,36.09
2018-09-05T15:40:01.569Z,36.13
2018-09-05T15:42:32.188Z,34.97
2018-09-05T15:45:02.872Z,35.68
2018-09-05T15:47:33.209Z,35.23
2018-09-05T15:50:05.200Z,35.57
2018-09-05T15:52:35.885Z,35.72
2018-09-05T15:55:06.778Z,32.14
2018-09-05T15:57:37.554Z,34.17
2018-09-05T16:00:08.106Z,35.87
2018-09-05T16:02:38.794Z,33.92
2018-09-05T16:05:09.425Z,32.76
2018-09-05T16:07:39.979Z,31.83
2018-09-05T16:10:10.574Z,33.29
2018-09-05T16:12:41.227Z,32.65
2018-09-05T16:15:11.855Z,33.93
2018-09-05T16:17:42.372Z,35.55
2018-09-05T16:20:13.225Z,34.13
2018-09-05T16:22:43.817Z,34.89
2018-09-05T16:25:14.557Z,35.24
2018-09-05T16:27:45.310Z,36.73
2018-09-05T16:30:16.044Z,35.22
2018-09-05T16:32:46.790Z,35.74
2018-09-05T16:35:17.421Z,34.77
2018-09-05T16:37:47.911Z,34.00
2018-09-05T16:40:18.825Z,34.03
2018-09-05T16:42:49.523Z,35.27
2018-09-05T16:45:20.304Z,34.69
2018-09-05T16:47:50.929Z,35.08
2018-09-05T16:50:21.578Z,33.50
2018-09-05T16:52:52.264Z,32.85
2018-09-05T16:55:23.426Z,34.95
2018-09-05T16:57:54.301Z,34.92
2018-09-05T17:00:25.168Z,35.03
2018-09-05T17:02:55.824Z,35.10
2018-09-05T17:05:26.572Z,35.87
2018-09-05T17:07:57.255Z,35.45
2018-09-05T17:10:28.169Z,35.18
2018-09-05T17:12:58.731Z,35.27
2018-09-05T17:15:29.719Z,34.03
2018-09-05T17:18:00.421Z,33.45
2018-09-05T17:20:31.378Z,32.68
2018-09-05T17:23:02.108Z,33.20
2018-09-05T17:25:32.790Z,33.83
2018-09-05T17:28:03.497Z,34.83
2018-09-05T17:30:34.365Z,34.37
2018-09-05T17:33:04.972Z,36.08
2018-09-05T17:35:35.965Z,36.31
2018-09-05T17:38:06.834Z,36.85
2018-09-05T17:40:37.708Z,36.73
2018-09-05T17:43:08.380Z,37.22
2018-09-05T17:45:39.161Z,36.55
2018-09-05T17:48:09.825Z,34.30
2018-09-05T17:50:40.793Z,36.71
2018-09-05T17:53:11.389Z,36.19
2018-09-05T17:55:42.322Z,36.50
2018-09-05T17:58:12.908Z,37.29
2018-09-05T18:00:43.949Z,37.71
2018-09-05T18:03:14.582Z,36.88
2018-09-05T18:05:45.565Z,36.87
2018-09-05T18:08:16.211Z,36.37
2018-09-05T18:10:47.207Z,36.82
2018-09-05T18:13:17.837Z,35.55
2018-09-05T18:15:48.828Z,35.46
2018-09-05T18:18:19.592Z,35.33
2018-09-05T18:20:51.122Z,34.32
2018-09-05T18:23:21.741Z,35.10
2018-09-05T18:25:52.513Z,35.11
2018-09-05T18:28:23.094Z,35.68
2018-09-05T18:30:54.149Z,35.28
2018-09-05T18:33:24.709Z,36.30
2018-09-05T18:35:55.516Z,37.40
2018-09-05T18:38:26.148Z,37.70
2018-09-05T18:40:57.229Z,36.90
2018-09-05T18:43:27.846Z,39.10
2018-09-05T18:45:58.493Z,36.69
2018-09-05T18:48:29.038Z,36.53
2018-09-05T18:51:00.431Z,35.50
2018-09-05T18:53:30.960Z,36.23
2018-09-05T18:56:01.988Z,37.36
2018-09-05T18:58:32.478Z,37.51
2018-09-05T19:01:03.470Z,37.11
2018-09-05T19:03:33.979Z,38.78
2018-09-05T19:06:04.656Z,37.79
2018-09-05T19:08:36.084Z,37.28
2018-09-05T19:11:07.825Z,35.94
2018-09-05T19:13:40.131Z,34.72
2018-09-05T19:16:11.006Z,36.22
2018-09-05T19:18:41.649Z,36.11
2018-09-05T19:21:12.652Z,34.85
2018-09-05T19:23:43.161Z,36.86
2018-09-05T19:26:13.992Z,35.76
2018-09-05T19:28:44.430Z,36.59
2018-09-05T19:31:15.311Z,37.82
2018-09-05T19:33:46.126Z,39.31
2018-09-05T19:36:16.914Z,37.95
2018-09-05T19:38:47.797Z,38.68
2018-09-05T19:41:18.689Z,37.62
2018-09-05T19:43:49.296Z,39.70
2018-09-05T19:46:20.226Z,37.39
2018-09-05T19:48:51.250Z,36.65
2018-09-05T19:51:21.797Z,36.02
2018-09-05T19:53:52.329Z,35.38
2018-09-05T19:56:22.985Z,34.82
2018-09-05T19:58:53.493Z,36.55
2018-09-05T20:01:24.450Z,37.22
2018-09-05T20:03:55.084Z,36.43
2018-09-05T20:06:25.834Z,36.57
2018-09-05T20:08:56.759Z,36.62
2018-09-05T20:11:27.912Z,37.22
2018-09-05T20:13:59.784Z,37.83
2018-09-05T20:16:30.836Z,38.87
2018-09-05T20:19:01.656Z,38.49
2018-09-05T20:21:32.863Z,39.20
2018-09-05T20:24:03.572Z,40.03
2018-09-05T20:26:34.850Z,38.59
2018-09-05T20:29:05.781Z,39.27
2018-09-05T20:31:36.868Z,38.92
2018-09-05T20:34:07.880Z,38.71
2018-09-05T20:36:39.685Z,36.59
2018-09-05T20:39:12.474Z,36.29
2018-09-05T20:41:43.163Z,35.78
2018-09-05T20:44:13.701Z,35.88
2018-09-05T20:46:44.413Z,36.50
2018-09-05T20:49:14.924Z,37.07
2018-09-05T20:51:45.749Z,38.46
2018-09-05T20:54:16.472Z,38.24
2018-09-05T20:56:47.129Z,38.30
2018-09-05T20:59:17.875Z,37.25
2018-09-05T21:01:48.621Z,37.01
2018-09-05T21:04:19.270Z,37.41
2018-09-05T21:06:50.051Z,38.02
2018-09-05T21:09:20.727Z,36.34
2018-09-05T21:11:51.633Z,35.92
2018-09-05T21:14:22.648Z,35.75
2018-09-05T21:16:53.181Z,35.95
2018-09-05T21:19:24.122Z,37.42
2018-09-05T21:21:55.086Z,39.52
2018-09-05T21:24:25.712Z,39.53
2018-09-05T21:26:56.845Z,39.34
2018-09-05T21:29:27.582Z,39.03
2018-09-05T21:31:58.663Z,40.13
2018-09-05T21:34:29.459Z,40.11
2018-09-05T21:37:00.527Z,40.75
2018-09-05T21:39:31.650Z,41.52
2018-09-05T21:42:02.597Z,40.16
2018-09-05T21:44:33.421Z,40.15
2018-09-05T21:47:04.445Z,40.76
2018-09-05T21:49:35.583Z,41.78
2018-09-05T21:52:06.908Z,40.76
2018-09-05T21:54:37.708Z,41.89
2018-09-05T21:57:10.450Z,41.31
2018-09-05T21:59:41.617Z,39.85
2018-09-05T22:02:12.522Z,40.26
2018-09-05T22:04:43.182Z,40.77
2018-09-05T22:07:14.058Z,41.72
2018-09-05T22:09:44.585Z,40.67
2018-09-05T22:12:15.417Z,39.72
2018-09-05T22:14:46.266Z,39.94
2018-09-05T22:17:17.039Z,38.48
2018-09-05T22:19:47.714Z,40.31
2018-09-05T22:22:18.764Z,38.66
2018-09-05T22:24:49.413Z,39.70
2018-09-05T22:27:20.344Z,40.37
2018-09-05T22:29:51.000Z,41.88
2018-09-05T22:32:22.151Z,40.43
2018-09-05T22:34:52.690Z,41.10
2018-09-05T22:37:24.093Z,41.30
2018-09-05T22:39:54.977Z,40.22
2018-09-05T22:42:25.993Z,39.79
2018-09-05T22:45:12.840Z,40.69
2018-09-05T22:48:05.758Z,40.81
2018-09-05T22:51:01.451Z,40.76
2018-09-05T22:55:54.552Z,38.65
2018-09-05T22:58:48.875Z,39.02
2018-09-05T23:01:36.190Z,40.16
2018-09-05T23:04:36.539Z,40.85
2018-09-05T23:07:32.670Z,40.64
2018-09-05T23:10:19.527Z,40.74
2018-09-05T23:13:06.702Z,40.10
2018-09-05T23:15:53.720Z,40.07
2018-09-05T23:19:44.474Z,38.50
2018-09-05T23:22:15.088Z,39.98
2018-09-05T23:24:46.054Z,40.21
2018-09-05T23:27:16.605Z,39.60
2018-09-05T23:29:47.365Z,39.40
2018-09-05T23:32:17.953Z,38.23
2018-09-05T23:34:48.714Z,38.85
2018-09-05T23:37:19.310Z,39.83
2018-09-05T23:39:50.291Z,39.15
2018-09-05T23:42:20.923Z,39.76
2018-09-05T23:44:51.883Z,37.91
2018-09-05T23:47:23.139Z,39.54
2018-09-05T23:49:54.026Z,40.47
2018-09-05T23:52:24.719Z,39.98
2018-09-05T23:54:55.498Z,40.85
2018-09-05T23:57:26.159Z,40.78
2018-09-05T23:59:56.974Z,39.76
